KBOS/BOS METAR and TAF weather

Enter ICAO airport designator
Station Type Date Time Source
KBOS METAR 2018/07/20 13:54 UTC NOAA

KBOS 201354Z 09006KT 10SM CLR 24/16 A3018 RMK AO2 SLP218 T02390161


Station Type Date Time Source
KBOS Decoded METAR 2018/07/20 13:54 UTC NOAA

BOSTON LOGAN INTERNATIONAL, MA, United States (KBOS) 42-22N 071-01W 54M
Jul 20, 2018 - 09:54 AM EDT / 2018.07.20 1354 UTC
Wind: from the E (090 degrees) at 7 MPH (6 KT):0
Visibility: 10 mile(s):0
Sky conditions: clear
Temperature: 75.0 F (23.9 C)
Dew Point: 61.0 F (16.1 C)
Relative Humidity: 61%
Pressure (altimeter): 30.18 in. Hg (1022 hPa)
ob: KBOS 201354Z 09006KT 10SM CLR 24/16 A3018 RMK AO2 SLP218 T02390161
cycle: 14

Station Type Date Time Source
KBOS TAF 2018/07/20 14:09 UTC NOAA

TAF
AMD KBOS 201400Z 2014/2118 11008KT P6SM SKC
FM202300 15004KT P6SM SKC
FM210200 17006KT P6SM SKC
FM210800 12004KT P6SM SKC
FM211100 07005KT P6SM SKC


Example: see airport list